<?xml version="1.0" encoding="UTF-8" standalone="yes"?>
<gpx xmlns="http://www.topografix.com/GPX/1/1" xmlns:gpxtrx="http://www.garmin.com/xmlschemas/GpxExtensions/v3" xmlns:rcxx="http://www.routeconverter.de/xmlschemas/RouteCatalogExtensions/1.0" xmlns:xsi="http://www.w3.org/2001/XMLSchema-instance" xmlns:gpxtpx="http://www.garmin.com/xmlschemas/TrackPointExtension/v1" xmlns:gpxx="http://www.garmin.com/xmlschemas/WaypointExtension/v1" xmlns:nmea="http://trekbuddy.net/2009/01/gpx/nmea" creator="Generated by Christian Pesch's RouteConverter. See http://www.routeconverter.com" version="1.1">
    <trk>
        <name>ACTIVE LOG.kmz/ACTIVE LOG</name>
        <trkseg>
            <trkpt lon="8.336155171966539" lat="46.97691843849733">
                <ele>447.630981</ele>
                <time>2011-08-13T05:02:24.000Z</time>
                <name>Position 1</name>
            </trkpt>
            <trkpt lon="8.335383391540518" lat="46.978206640287574">
                <ele>447.630981</ele>
                <time>2011-08-13T05:03:00.000Z</time>
                <name>Position 2</name>
            </trkpt>
            <trkpt lon="8.33468547486882" lat="46.97855803990217">
                <ele>447.630981</ele>
                <time>2011-08-13T05:03:05.000Z</time>
                <name>Position 3</name>
            </trkpt>
            <trkpt lon="8.334224" lat="46.978633">
                <ele>447.630981</ele>
                <time>2011-08-13T05:03:19.000Z</time>
                <name>Position 4</name>
            </trkpt>
            <trkpt lon="8.333730626983652" lat="46.97838154012781">
                <ele>447.1502689999999</ele>
                <time>2011-08-13T05:03:49.000Z</time>
                <name>Position 5</name>
            </trkpt>
            <trkpt lon="8.333226728836053" lat="46.978424500113476">
                <ele>450.0344239999999</ele>
                <time>2011-08-13T05:04:27.000Z</time>
                <name>Position 6</name>
            </trkpt>
            <trkpt lon="8.332529" lat="46.978612">
                <ele>450.515015</ele>
                <time>2011-08-13T05:05:17.000Z</time>
                <name>Position 7</name>
            </trkpt>
            <trkpt lon="8.331864" lat="46.978848">
                <ele>448.592407</ele>
                <time>2011-08-13T05:05:50.000Z</time>
                <name>Position 8</name>
            </trkpt>
            <trkpt lon="8.331349" lat="46.978977">
                <ele>449.553711</ele>
                <time>2011-08-13T05:06:16.000Z</time>
                <name>Position 9</name>
            </trkpt>
            <trkpt lon="8.330963" lat="46.979148">
                <ele>450.0344239999999</ele>
                <time>2011-08-13T05:07:06.000Z</time>
                <name>Position 10</name>
            </trkpt>
            <trkpt lon="8.331279516532959" lat="46.97875010034141">
                <ele>449.553711</ele>
                <time>2011-08-13T05:07:52.000Z</time>
                <name>Position 11</name>
            </trkpt>
            <trkpt lon="8.331263" lat="46.978312">
                <ele>458.205566</ele>
                <time>2011-08-13T05:08:16.000Z</time>
                <name>Position 12</name>
            </trkpt>
            <trkpt lon="8.330791" lat="46.977711">
                <ele>458.6861569999999</ele>
                <time>2011-08-13T05:09:06.000Z</time>
                <name>Position 13</name>
            </trkpt>
            <trkpt lon="8.330705288360605" lat="46.97702855684826">
                <ele>458.6861569999999</ele>
                <time>2011-08-13T05:10:05.000Z</time>
                <name>Position 14</name>
            </trkpt>
            <trkpt lon="8.330383" lat="46.977496">
                <ele>459.16687</ele>
                <time>2011-08-13T05:11:18.000Z</time>
                <name>Position 15</name>
            </trkpt>
            <trkpt lon="8.330469" lat="46.977904">
                <ele>460.608765</ele>
                <time>2011-08-13T05:12:00.000Z</time>
                <name>Position 16</name>
            </trkpt>
            <trkpt lon="8.330662253967262" lat="46.978250660013444">
                <ele>461.089478</ele>
                <time>2011-08-13T05:12:34.000Z</time>
                <name>Position 17</name>
            </trkpt>
            <trkpt lon="8.330861025795002" lat="46.97841344040287">
                <ele>463.492798</ele>
                <time>2011-08-13T05:14:33.000Z</time>
                <name>Position 18</name>
            </trkpt>
            <trkpt lon="8.330673083328293" lat="46.978352199922114">
                <ele>463.492798</ele>
                <time>2011-08-13T05:15:31.000Z</time>
                <name>Position 19</name>
            </trkpt>
            <trkpt lon="8.330318457672092" lat="46.97828627976453">
                <ele>465.896118</ele>
                <time>2011-08-13T05:16:03.000Z</time>
                <name>Position 20</name>
            </trkpt>
            <trkpt lon="8.329375" lat="46.978655">
                <ele>469.741333</ele>
                <time>2011-08-13T05:18:45.000Z</time>
                <name>Position 21</name>
            </trkpt>
            <trkpt lon="8.328474" lat="46.97856899999999">
                <ele>469.741333</ele>
                <time>2011-08-13T05:19:55.000Z</time>
                <name>Position 22</name>
            </trkpt>
            <trkpt lon="8.328667" lat="46.978719">
                <ele>500.022949</ele>
                <time>2011-08-13T05:20:17.000Z</time>
                <name>Position 23</name>
            </trkpt>
            <trkpt lon="8.329225" lat="46.97846200000001">
                <ele>500.022949</ele>
                <time>2011-08-13T05:20:34.000Z</time>
                <name>Position 24</name>
            </trkpt>
            <trkpt lon="8.328967" lat="46.97833300000001">
                <ele>520.210571</ele>
                <time>2011-08-13T05:21:59.000Z</time>
                <name>Position 25</name>
            </trkpt>
            <trkpt lon="8.328967" lat="46.97826899999999">
                <ele>520.691284</ele>
                <time>2011-08-13T05:22:44.000Z</time>
                <name>Position 26</name>
            </trkpt>
            <trkpt lon="8.328881" lat="46.97799">
                <ele>567.315186</ele>
                <time>2011-08-13T05:23:11.000Z</time>
                <name>Position 27</name>
            </trkpt>
            <trkpt lon="8.328753" lat="46.977475">
                <ele>576.447754</ele>
                <time>2011-08-13T05:24:09.000Z</time>
                <name>Position 28</name>
            </trkpt>
            <trkpt lon="8.329053" lat="46.97723899999999">
                <ele>566.834473</ele>
                <time>2011-08-13T05:24:50.000Z</time>
                <name>Position 29</name>
            </trkpt>
            <trkpt lon="8.32871" lat="46.97743200000001">
                <ele>562.989258</ele>
                <time>2011-08-13T05:26:08.000Z</time>
                <name>Position 30</name>
            </trkpt>
            <trkpt lon="8.328881" lat="46.977131">
                <ele>561.547363</ele>
                <time>2011-08-13T05:27:44.000Z</time>
                <name>Position 31</name>
            </trkpt>
            <trkpt lon="8.328838" lat="46.976788">
                <ele>564.431152</ele>
                <time>2011-08-13T05:28:49.000Z</time>
                <name>Position 32</name>
            </trkpt>
            <trkpt lon="8.328436449073706" lat="46.97627032807929">
                <ele>562.989258</ele>
                <time>2011-08-13T05:29:43.000Z</time>
                <name>Position 33</name>
            </trkpt>
            <trkpt lon="8.328076644180328" lat="46.97598301949557">
                <ele>563.469971</ele>
                <time>2011-08-13T05:30:47.000Z</time>
                <name>Position 34</name>
            </trkpt>
            <trkpt lon="8.328210381614554" lat="46.97648802657265">
                <ele>569.718506</ele>
                <time>2011-08-13T05:31:24.000Z</time>
                <name>Position 35</name>
            </trkpt>
            <trkpt lon="8.327872677246205" lat="46.97614846268622">
                <ele>572.121826</ele>
                <time>2011-08-13T05:32:12.000Z</time>
                <name>Position 36</name>
            </trkpt>
            <trkpt lon="8.327888550926218" lat="46.976581307395364">
                <ele>573.083252</ele>
                <time>2011-08-13T05:33:01.000Z</time>
                <name>Position 37</name>
            </trkpt>
            <trkpt lon="8.327684906745844" lat="46.97637624838918">
                <ele>577.40918</ele>
                <time>2011-08-13T05:34:20.000Z</time>
                <name>Position 38</name>
            </trkpt>
            <trkpt lon="8.32770157672121" lat="46.976577530467644">
                <ele>599.519287</ele>
                <time>2011-08-13T05:37:13.000Z</time>
                <name>Position 39</name>
            </trkpt>
            <trkpt lon="8.32754532366232" lat="46.97639391151925">
                <ele>631.0</ele>
                <time>2011-08-13T05:40:10.075Z</time>
                <name>NeuePosition 40</name>
            </trkpt>
            <trkpt lon="8.327534721565257" lat="46.97657306546412">
                <ele>600.0</ele>
                <time>2011-08-13T05:38:17.000Z</time>
                <name>Position 41</name>
            </trkpt>
            <trkpt lon="8.327362671302808" lat="46.97646243275472">
                <ele>600.0</ele>
                <time>2011-08-13T05:38:31.000Z</time>
                <name>Position 42</name>
            </trkpt>
            <trkpt lon="8.327352654106107" lat="46.9762382421393">
                <ele>600.0</ele>
                <time>2011-08-13T05:38:53.000Z</time>
                <name>Position 43</name>
            </trkpt>
            <trkpt lon="8.327036253967321" lat="46.976142156289036">
                <ele>655.756592</ele>
                <time>2011-08-13T05:39:04.000Z</time>
                <name>Position 44</name>
            </trkpt>
            <trkpt lon="8.327207865081846" lat="46.97646959479172">
                <ele>648.546387</ele>
                <time>2011-08-13T05:40:10.000Z</time>
                <name>Position 45</name>
            </trkpt>
            <trkpt lon="8.327145674519102" lat="46.97665927103987">
                <ele>659.0</ele>
                <time>2011-08-13T05:40:50.485Z</time>
                <name>NeuePosition 46</name>
            </trkpt>
            <trkpt lon="8.326575051589998" lat="46.97625282931934">
                <ele>652.391846</ele>
                <time>2011-08-13T05:41:48.000Z</time>
                <name>Position 47</name>
            </trkpt>
            <trkpt lon="8.325761654667417" lat="46.97622005456788">
                <ele>682.0</ele>
                <time>2011-08-13T05:42:44.903Z</time>
                <name>NeuePosition 48</name>
            </trkpt>
            <trkpt lon="8.326373198322813" lat="46.976608029304">
                <ele>691.0</ele>
                <time>2011-08-13T05:43:23.144Z</time>
                <name>NeuePosition 49</name>
            </trkpt>
            <trkpt lon="8.325826027683775" lat="46.9767763948231">
                <ele>703.0</ele>
                <time>2011-08-13T05:44:07.328Z</time>
                <name>NeuePosition 50</name>
            </trkpt>
            <trkpt lon="8.324742415241758" lat="46.97653482673907">
                <ele>736.0</ele>
                <time>2011-08-13T05:46:37.317Z</time>
                <name>NeuePosition 51</name>
            </trkpt>
            <trkpt lon="8.32244644432501" lat="46.975649067760905">
                <ele>774.0</ele>
                <time>2011-08-13T05:51:35.602Z</time>
                <name>NeuePosition 52</name>
            </trkpt>
            <trkpt lon="8.32147796826166" lat="46.975722224898355">
                <ele>652.391846</ele>
                <time>2011-08-13T05:59:57.000Z</time>
                <name>Position 53</name>
            </trkpt>
            <trkpt lon="8.320984544982934" lat="46.97570284319579">
                <ele>652.391846</ele>
                <time>2011-08-13T06:00:54.000Z</time>
                <name>Position 54</name>
            </trkpt>
            <trkpt lon="8.321188205032286" lat="46.97589142140962">
                <ele>652.391846</ele>
                <time>2011-08-13T06:01:15.000Z</time>
                <name>Position 55</name>
            </trkpt>
            <trkpt lon="8.32052374470527" lat="46.975958004629156">
                <ele>652.391846</ele>
                <time>2011-08-13T06:01:46.000Z</time>
                <name>Position 56</name>
            </trkpt>
            <trkpt lon="8.320727560851992" lat="46.97611370422669">
                <ele>652.391846</ele>
                <time>2011-08-13T06:01:57.000Z</time>
                <name>Position 57</name>
            </trkpt>
            <trkpt lon="8.320019169311536" lat="46.97609248491456">
                <ele>652.391846</ele>
                <time>2011-08-13T06:02:38.000Z</time>
                <name>Position 58</name>
            </trkpt>
            <trkpt lon="8.320437784408568" lat="46.97628939159782">
                <ele>652.391846</ele>
                <time>2011-08-13T06:03:34.000Z</time>
                <name>Position 59</name>
            </trkpt>
            <trkpt lon="8.320062" lat="46.976295">
                <ele>797.070313</ele>
                <time>2011-08-13T06:04:20.000Z</time>
                <name>Position 60</name>
            </trkpt>
            <trkpt lon="8.320599" lat="46.97644499999999">
                <ele>797.070313</ele>
                <time>2011-08-13T06:05:01.000Z</time>
                <name>Position 61</name>
            </trkpt>
            <trkpt lon="8.319783153442359" lat="46.97641020283579">
                <ele>799.4736329999998</ele>
                <time>2011-08-13T06:06:41.000Z</time>
                <name>Position 62</name>
            </trkpt>
            <trkpt lon="8.318174" lat="46.976144">
                <ele>801.8769529999998</ele>
                <time>2011-08-13T06:07:37.000Z</time>
                <name>Position 63</name>
            </trkpt>
            <trkpt lon="8.316264" lat="46.97539299999999">
                <ele>801.8769529999998</ele>
                <time>2011-08-13T06:10:33.000Z</time>
                <name>Position 64</name>
            </trkpt>
            <trkpt lon="8.315728" lat="46.975179">
                <ele>821.5837399999999</ele>
                <time>2011-08-13T06:11:10.000Z</time>
                <name>Position 65</name>
            </trkpt>
            <trkpt lon="8.314805" lat="46.975222">
                <ele>811.4899899999999</ele>
                <time>2011-08-13T06:12:57.000Z</time>
                <name>Position 66</name>
            </trkpt>
            <trkpt lon="8.314333" lat="46.975307">
                <ele>811.4899899999999</ele>
                <time>2011-08-13T06:13:56.000Z</time>
                <name>Position 67</name>
            </trkpt>
            <trkpt lon="8.313732" lat="46.975307">
                <ele>811.4899899999999</ele>
                <time>2011-08-13T06:14:18.000Z</time>
                <name>Position 68</name>
            </trkpt>
            <trkpt lon="8.312573" lat="46.97535">
                <ele>827.832275</ele>
                <time>2011-08-13T06:16:11.000Z</time>
                <name>Position 69</name>
            </trkpt>
            <trkpt lon="8.311758" lat="46.97535">
                <ele>829.274414</ele>
                <time>2011-08-13T06:18:07.000Z</time>
                <name>Position 70</name>
            </trkpt>
            <trkpt lon="8.310835" lat="46.975265">
                <ele>829.274414</ele>
                <time>2011-08-13T06:19:08.000Z</time>
                <name>Position 71</name>
            </trkpt>
            <trkpt lon="8.309623101852367" lat="46.9750581435307">
                <ele>829.274414</ele>
                <time>2011-08-13T06:20:39.000Z</time>
                <name>Position 72</name>
            </trkpt>
            <trkpt lon="8.308432" lat="46.974921">
                <ele>847.058838</ele>
                <time>2011-08-13T06:21:48.000Z</time>
                <name>Position 73</name>
            </trkpt>
            <trkpt lon="8.307467" lat="46.97459899999999">
                <ele>829.274414</ele>
                <time>2011-08-13T06:22:47.000Z</time>
                <name>Position 74</name>
            </trkpt>
            <trkpt lon="8.306898202377283" lat="46.97471161578374">
                <ele>829.274414</ele>
                <time>2011-08-13T06:22:59.000Z</time>
                <name>Position 75</name>
            </trkpt>
            <trkpt lon="8.306823" lat="46.974857">
                <ele>860.517334</ele>
                <time>2011-08-13T06:23:46.000Z</time>
                <name>Position 76</name>
            </trkpt>
            <trkpt lon="8.304055" lat="46.976788">
                <ele>891.76001</ele>
                <time>2011-08-13T06:29:59.000Z</time>
                <name>Position 77</name>
            </trkpt>
            <trkpt lon="8.303325" lat="46.97685199999999">
                <ele>884.5502929999999</ele>
                <time>2011-08-13T06:30:51.000Z</time>
                <name>Position 78</name>
            </trkpt>
            <trkpt lon="8.302832" lat="46.976874">
                <ele>881.185791</ele>
                <time>2011-08-13T06:31:22.000Z</time>
                <name>Position 79</name>
            </trkpt>
            <trkpt lon="8.302295" lat="46.97681">
                <ele>876.8598629999999</ele>
                <time>2011-08-13T06:32:02.000Z</time>
                <name>Position 80</name>
            </trkpt>
            <trkpt lon="8.301673" lat="46.976788">
                <ele>872.052979</ele>
                <time>2011-08-13T06:32:56.000Z</time>
                <name>Position 81</name>
            </trkpt>
            <trkpt lon="8.300965" lat="46.976981">
                <ele>871.0917970000002</ele>
                <time>2011-08-13T06:34:41.000Z</time>
                <name>Position 82</name>
            </trkpt>
            <trkpt lon="8.300128" lat="46.97711">
                <ele>870.611084</ele>
                <time>2011-08-13T06:35:35.000Z</time>
                <name>Position 83</name>
            </trkpt>
            <trkpt lon="8.299677" lat="46.977046">
                <ele>871.0917970000002</ele>
                <time>2011-08-13T06:36:18.000Z</time>
                <name>Position 84</name>
            </trkpt>
            <trkpt lon="8.299248" lat="46.97711">
                <ele>873.014404</ele>
                <time>2011-08-13T06:36:46.000Z</time>
                <name>Position 85</name>
            </trkpt>
            <trkpt lon="8.298733" lat="46.977131">
                <ele>870.130371</ele>
                <time>2011-08-13T06:37:21.000Z</time>
                <name>Position 86</name>
            </trkpt>
            <trkpt lon="8.29554696693424" lat="46.976926074035234">
                <ele>870.130371</ele>
                <time>2011-08-13T06:41:43.000Z</time>
                <name>Position 87</name>
            </trkpt>
            <trkpt lon="8.294613" lat="46.977003">
                <ele>901.373291</ele>
                <time>2011-08-13T06:42:44.000Z</time>
                <name>Position 88</name>
            </trkpt>
            <trkpt lon="8.294356" lat="46.97696">
                <ele>901.373291</ele>
                <time>2011-08-13T06:43:07.000Z</time>
                <name>Position 89</name>
            </trkpt>
            <trkpt lon="8.292231579376221" lat="46.97660960126888">
                <ele>944.632568</ele>
                <time>2011-08-13T07:00:45.000Z</time>
                <name>Position 90</name>
            </trkpt>
            <trkpt lon="8.290515" lat="46.976187">
                <ele>947.997314</ele>
                <time>2011-08-13T07:01:56.000Z</time>
                <name>Position 91</name>
            </trkpt>
            <trkpt lon="8.290343" lat="46.976101">
                <ele>943.190674</ele>
                <time>2011-08-13T07:02:47.000Z</time>
                <name>Position 92</name>
            </trkpt>
            <trkpt lon="8.289936" lat="46.97608">
                <ele>985.4885249999999</ele>
                <time>2011-08-13T07:04:33.000Z</time>
                <name>Position 93</name>
            </trkpt>
            <trkpt lon="8.289421" lat="46.976037">
                <ele>987.891846</ele>
                <time>2011-08-13T07:07:22.000Z</time>
                <name>Position 94</name>
            </trkpt>
            <trkpt lon="8.288627" lat="46.976101">
                <ele>994.621094</ele>
                <time>2011-08-13T07:13:18.000Z</time>
                <name>Position 95</name>
            </trkpt>
            <trkpt lon="8.288219" lat="46.976016">
                <ele>995.101807</ele>
                <time>2011-08-13T07:14:10.000Z</time>
                <name>Position 96</name>
            </trkpt>
            <trkpt lon="8.287575" lat="46.975994">
                <ele>997.98584</ele>
                <time>2011-08-13T07:15:39.000Z</time>
                <name>Position 97</name>
            </trkpt>
            <trkpt lon="8.287209999999959" lat="46.97599763255902">
                <ele>999.427734</ele>
                <time>2011-08-13T07:17:15.000Z</time>
                <name>Position 98</name>
            </trkpt>
            <trkpt lon="8.286856186508203" lat="46.975973154943325">
                <ele>999.427734</ele>
                <time>2011-08-13T07:18:05.000Z</time>
                <name>Position 99</name>
            </trkpt>
            <trkpt lon="8.286416373016323" lat="46.97596132078114">
                <ele>999.427734</ele>
                <time>2011-08-13T07:18:35.000Z</time>
                <name>Position 100</name>
            </trkpt>
            <trkpt lon="8.286052203704912" lat="46.97599337024403">
                <ele>999.427734</ele>
                <time>2011-08-13T07:19:04.000Z</time>
                <name>Position 101</name>
            </trkpt>
            <trkpt lon="8.285880388885516" lat="46.97598400873594">
                <ele>1071.046143</ele>
                <time>2011-08-13T07:19:30.000Z</time>
                <name>Position 102</name>
            </trkpt>
            <trkpt lon="8.28573" lat="46.975951">
                <ele>1071.046143</ele>
                <time>2011-08-13T07:21:19.000Z</time>
                <name>Position 103</name>
            </trkpt>
            <trkpt lon="8.285387" lat="46.976209">
                <ele>1071.046143</ele>
                <time>2011-08-13T07:21:59.000Z</time>
                <name>Position 104</name>
            </trkpt>
            <trkpt lon="8.285537084655743" lat="46.975957494043165">
                <ele>1070.56543</ele>
                <time>2011-08-13T07:22:13.000Z</time>
                <name>Position 105</name>
            </trkpt>
            <trkpt lon="8.285439982803382" lat="46.97599114109816">
                <ele>1101.327637</ele>
                <time>2011-08-13T07:22:57.000Z</time>
                <name>Position 106</name>
            </trkpt>
            <trkpt lon="8.285365" lat="46.975908">
                <ele>1071.046143</ele>
                <time>2011-08-13T07:23:15.000Z</time>
                <name>Position 107</name>
            </trkpt>
            <trkpt lon="8.285322" lat="46.976037">
                <ele>1111.9021</ele>
                <time>2011-08-13T07:23:52.000Z</time>
                <name>Position 108</name>
            </trkpt>
            <trkpt lon="8.285322" lat="46.975973">
                <ele>1085.46582</ele>
                <time>2011-08-13T07:30:50.000Z</time>
                <name>Position 109</name>
            </trkpt>
            <trkpt lon="8.28506479629516" lat="46.975873147658724">
                <ele>1109.498779</ele>
                <time>2011-08-13T07:36:35.000Z</time>
                <name>Position 110</name>
            </trkpt>
            <trkpt lon="8.284324593917859" lat="46.97572595205332">
                <ele>1072.488037</ele>
                <time>2011-08-13T07:38:59.000Z</time>
                <name>Position 111</name>
            </trkpt>
            <trkpt lon="8.284142" lat="46.975694">
                <ele>1160.448486</ele>
                <time>2011-08-13T07:40:06.000Z</time>
                <name>Position 112</name>
            </trkpt>
            <trkpt lon="8.283584" lat="46.97571500000001">
                <ele>1141.702881</ele>
                <time>2011-08-13T07:41:44.000Z</time>
                <name>Position 113</name>
            </trkpt>
            <trkpt lon="8.28318755952455" lat="46.97571131130683">
                <ele>1151.796875</ele>
                <time>2011-08-13T07:46:08.000Z</time>
                <name>Position 114</name>
            </trkpt>
            <trkpt lon="8.282983253967245" lat="46.97566827223815">
                <ele>1159.967773</ele>
                <time>2011-08-13T07:46:55.000Z</time>
                <name>Position 115</name>
            </trkpt>
            <trkpt lon="8.28263505886082" lat="46.97548179132371">
                <ele>1204.669189</ele>
                <time>2011-08-13T07:48:44.000Z</time>
                <name>Position 116</name>
            </trkpt>
            <trkpt lon="8.2819639669342" lat="46.975365465472315">
                <ele>1206.111084</ele>
                <time>2011-08-13T07:54:33.000Z</time>
                <name>Position 117</name>
            </trkpt>
            <trkpt lon="8.281738746032715" lat="46.9757689521828">
                <ele>1206.111084</ele>
                <time>2011-08-13T07:56:58.000Z</time>
                <name>Position 118</name>
            </trkpt>
            <trkpt lon="8.279378" lat="46.976144">
                <ele>1198.901367</ele>
                <time>2011-08-13T08:00:37.000Z</time>
                <name>Position 119</name>
            </trkpt>
            <trkpt lon="8.279850949737579" lat="46.97621179355064">
                <ele>1249.370605</ele>
                <time>2011-08-13T08:00:48.000Z</time>
                <name>Position 120</name>
            </trkpt>
            <trkpt lon="8.280044" lat="46.976144">
                <ele>1249.370605</ele>
                <time>2011-08-13T08:01:39.000Z</time>
                <name>Position 121</name>
            </trkpt>
            <trkpt lon="8.280494" lat="46.976359">
                <ele>1249.370605</ele>
                <time>2011-08-13T08:02:36.000Z</time>
                <name>Position 122</name>
            </trkpt>
            <trkpt lon="8.279486" lat="46.976552">
                <ele>1249.370605</ele>
                <time>2011-08-13T08:05:35.000Z</time>
                <name>Position 123</name>
            </trkpt>
            <trkpt lon="8.279705769172665" lat="46.976441300688904">
                <ele>1258.983643</ele>
                <time>2011-08-13T08:16:34.000Z</time>
                <name>Position 124</name>
            </trkpt>
            <trkpt lon="8.280087" lat="46.976466">
                <ele>1264.751709</ele>
                <time>2011-08-13T08:16:58.000Z</time>
                <name>Position 125</name>
            </trkpt>
            <trkpt lon="8.27925" lat="46.97644499999999">
                <ele>1264.751709</ele>
                <time>2011-08-13T08:18:16.000Z</time>
                <name>Position 126</name>
            </trkpt>
            <trkpt lon="8.279293" lat="46.976788">
                <ele>1266.193604</ele>
                <time>2011-08-13T08:18:31.000Z</time>
                <name>Position 127</name>
            </trkpt>
            <trkpt lon="8.2794" lat="46.97650900000001">
                <ele>1266.674316</ele>
                <time>2011-08-13T08:18:34.000Z</time>
                <name>Position 128</name>
            </trkpt>
            <trkpt lon="8.278241" lat="46.97674499999999">
                <ele>1273.884033</ele>
                <time>2011-08-13T08:21:42.000Z</time>
                <name>Position 129</name>
            </trkpt>
            <trkpt lon="8.277297" lat="46.97663800000001">
                <ele>1273.884033</ele>
                <time>2011-08-13T08:25:47.000Z</time>
                <name>Position 130</name>
            </trkpt>
            <trkpt lon="8.276911" lat="46.97631599999999">
                <ele>1273.884033</ele>
                <time>2011-08-13T08:26:32.000Z</time>
                <name>Position 131</name>
            </trkpt>
            <trkpt lon="8.275537" lat="46.97674499999999">
                <ele>1273.884033</ele>
                <time>2011-08-13T08:30:54.000Z</time>
                <name>Position 132</name>
            </trkpt>
            <trkpt lon="8.274937" lat="46.977324">
                <ele>1273.884033</ele>
                <time>2011-08-13T08:32:14.000Z</time>
                <name>Position 133</name>
            </trkpt>
            <trkpt lon="8.274314" lat="46.97743200000001">
                <ele>1273.884033</ele>
                <time>2011-08-13T08:37:19.000Z</time>
                <name>Position 134</name>
            </trkpt>
            <trkpt lon="8.274872473541222" lat="46.97741742277408">
                <ele>1385.396973</ele>
                <time>2011-08-13T08:40:07.000Z</time>
                <name>Position 135</name>
            </trkpt>
            <trkpt lon="8.27455" lat="46.977496">
                <ele>1386.358398</ele>
                <time>2011-08-13T08:45:22.000Z</time>
                <name>Position 136</name>
            </trkpt>
            <trkpt lon="8.274663515205361" lat="46.97755175916852">
                <ele>1386.358398</ele>
                <time>2011-08-13T08:48:00.000Z</time>
                <name>Position 137</name>
            </trkpt>
            <trkpt lon="8.274508" lat="46.977603">
                <ele>1386.358398</ele>
                <time>2011-08-13T08:49:39.000Z</time>
                <name>Position 138</name>
            </trkpt>
            <trkpt lon="8.274508" lat="46.97799">
                <ele>1469.993164</ele>
                <time>2011-08-13T08:50:19.000Z</time>
                <name>Position 139</name>
            </trkpt>
            <trkpt lon="8.274207" lat="46.978247">
                <ele>1464.225098</ele>
                <time>2011-08-13T08:52:36.000Z</time>
                <name>Position 140</name>
            </trkpt>
            <trkpt lon="8.273542" lat="46.97844000000001">
                <ele>1469.993164</ele>
                <time>2011-08-13T08:56:06.000Z</time>
                <name>Position 141</name>
            </trkpt>
            <trkpt lon="8.272598" lat="46.978397">
                <ele>1483.932129</ele>
                <time>2011-08-13T08:58:49.000Z</time>
                <name>Position 142</name>
            </trkpt>
            <trkpt lon="8.272251690807366" lat="46.97853784024984">
                <ele>1498.83252</ele>
                <time>2011-08-13T09:02:45.000Z</time>
                <name>Position 143</name>
            </trkpt>
            <trkpt lon="8.271825" lat="46.978633">
                <ele>1498.83252</ele>
                <time>2011-08-13T09:03:49.000Z</time>
                <name>Position 144</name>
            </trkpt>
            <trkpt lon="8.27183652513122" lat="46.978596400116146">
                <ele>1475.280273</ele>
                <time>2011-08-13T09:04:19.000Z</time>
                <name>Position 145</name>
            </trkpt>
            <trkpt lon="8.271825" lat="46.978419">
                <ele>1509.407227</ele>
                <time>2011-08-13T09:05:46.000Z</time>
                <name>Position 146</name>
            </trkpt>
            <trkpt lon="8.271744449073822" lat="46.97846646069754">
                <ele>1509.407227</ele>
                <time>2011-08-13T09:06:43.000Z</time>
                <name>Position 147</name>
            </trkpt>
            <trkpt lon="8.271551703041041" lat="46.97786192049702">
                <ele>1577.660645</ele>
                <time>2011-08-13T09:46:54.000Z</time>
                <name>Position 148</name>
            </trkpt>
            <trkpt lon="8.271428152114822" lat="46.97787650994189">
                <ele>1577.660645</ele>
                <time>2011-08-13T09:47:29.000Z</time>
                <name>Position 149</name>
            </trkpt>
            <trkpt lon="8.27134474966806" lat="46.97781797825933">
                <ele>1613.229736</ele>
                <time>2011-08-13T09:47:41.000Z</time>
                <name>Position 150</name>
            </trkpt>
            <trkpt lon="8.271254435512674" lat="46.977841790273686">
                <ele>1579.583252</ele>
                <time>2011-08-13T09:47:46.000Z</time>
                <name>Position 151</name>
            </trkpt>
            <trkpt lon="8.27116" lat="46.977925">
                <ele>1575.738037</ele>
                <time>2011-08-13T09:50:05.000Z</time>
                <name>Position 152</name>
            </trkpt>
            <trkpt lon="8.271127779098379" lat="46.97829466231751">
                <ele>1602.174316</ele>
                <time>2011-08-13T09:50:24.000Z</time>
                <name>Position 153</name>
            </trkpt>
            <trkpt lon="8.271023495700774" lat="46.97820222031877">
                <ele>1619.95874</ele>
                <time>2011-08-13T09:56:54.000Z</time>
                <name>Position 154</name>
            </trkpt>
            <trkpt lon="8.270886364418061" lat="46.97818847967425">
                <ele>1643.030273</ele>
                <time>2011-08-13T09:58:08.000Z</time>
                <name>Position 155</name>
            </trkpt>
            <trkpt lon="8.270634236770661" lat="46.978202199614046">
                <ele>1669.947266</ele>
                <time>2011-08-13T09:59:13.000Z</time>
                <name>Position 156</name>
            </trkpt>
            <trkpt lon="8.270444106815376" lat="46.978376840368725">
                <ele>1681.963867</ele>
                <time>2011-08-13T09:59:49.000Z</time>
                <name>Position 157</name>
            </trkpt>
            <trkpt lon="8.270213706676486" lat="46.97848757998333">
                <ele>1688.693115</ele>
                <time>2011-08-13T10:00:09.000Z</time>
                <name>Position 158</name>
            </trkpt>
            <trkpt lon="8.270068851520591" lat="46.978578209840535">
                <ele>1691.096191</ele>
                <time>2011-08-13T10:02:30.000Z</time>
                <name>Position 159</name>
            </trkpt>
            <trkpt lon="8.269617936176246" lat="46.978693489456425">
                <ele>1690.13501</ele>
                <time>2011-08-13T10:03:25.000Z</time>
                <name>Position 160</name>
            </trkpt>
            <trkpt lon="8.26917489814764" lat="46.978677929591974">
                <ele>1687.731689</ele>
                <time>2011-08-13T10:04:37.000Z</time>
                <name>Position 161</name>
            </trkpt>
            <trkpt lon="8.268564" lat="46.978612">
                <ele>1683.886475</ele>
                <time>2011-08-13T10:06:42.000Z</time>
                <name>Position 162</name>
            </trkpt>
            <trkpt lon="8.268113" lat="46.978419">
                <ele>1684.8479</ele>
                <time>2011-08-13T10:07:31.000Z</time>
                <name>Position 163</name>
            </trkpt>
            <trkpt lon="8.267748" lat="46.978204">
                <ele>1674.273193</ele>
                <time>2011-08-13T10:09:48.000Z</time>
                <name>Position 164</name>
            </trkpt>
            <trkpt lon="8.267174618385297" lat="46.978317399925146">
                <ele>1674.753906</ele>
                <time>2011-08-13T10:10:11.000Z</time>
                <name>Position 165</name>
            </trkpt>
            <trkpt lon="8.266804" lat="46.97846200000001">
                <ele>1676.196045</ele>
                <time>2011-08-13T10:12:52.000Z</time>
                <name>Position 166</name>
            </trkpt>
            <trkpt lon="8.266538495700843" lat="46.978489440080715">
                <ele>1699.267578</ele>
                <time>2011-08-13T10:22:16.000Z</time>
                <name>Position 167</name>
            </trkpt>
            <trkpt lon="8.266118" lat="46.97856899999999">
                <ele>1721.377686</ele>
                <time>2011-08-13T10:27:56.000Z</time>
                <name>Position 168</name>
            </trkpt>
            <trkpt lon="8.265646" lat="46.978548">
                <ele>1732.913574</ele>
                <time>2011-08-13T10:30:34.000Z</time>
                <name>Position 169</name>
            </trkpt>
            <trkpt lon="8.265152" lat="46.97844000000001">
                <ele>1751.659424</ele>
                <time>2011-08-13T10:36:03.000Z</time>
                <name>Position 170</name>
            </trkpt>
            <trkpt lon="8.265281" lat="46.978397">
                <ele>1771.846924</ele>
                <time>2011-08-13T10:45:41.000Z</time>
                <name>Position 171</name>
            </trkpt>
            <trkpt lon="8.26483" lat="46.978505">
                <ele>1784.824951</ele>
                <time>2011-08-13T10:50:55.000Z</time>
                <name>Position 172</name>
            </trkpt>
            <trkpt lon="8.264401" lat="46.97859">
                <ele>1796.841309</ele>
                <time>2011-08-13T10:54:00.000Z</time>
                <name>Position 173</name>
            </trkpt>
            <trkpt lon="8.263929" lat="46.978784">
                <ele>1812.703125</ele>
                <time>2011-08-13T10:57:40.000Z</time>
                <name>Position 174</name>
            </trkpt>
            <trkpt lon="8.263435" lat="46.978805">
                <ele>1830.487549</ele>
                <time>2011-08-13T11:00:41.000Z</time>
                <name>Position 175</name>
            </trkpt>
            <trkpt lon="8.263049" lat="46.978934">
                <ele>1844.907227</ele>
                <time>2011-08-13T11:03:53.000Z</time>
                <name>Position 176</name>
            </trkpt>
            <trkpt lon="8.26292" lat="46.97923400000001">
                <ele>1860.769043</ele>
                <time>2011-08-13T11:06:59.000Z</time>
                <name>Position 177</name>
            </trkpt>
            <trkpt lon="8.262813" lat="46.979535">
                <ele>1881.437256</ele>
                <time>2011-08-13T11:09:25.000Z</time>
                <name>Position 178</name>
            </trkpt>
            <trkpt lon="8.262577" lat="46.97949199999999">
                <ele>1901.625244</ele>
                <time>2011-08-13T11:12:00.000Z</time>
                <name>Position 179</name>
            </trkpt>
            <trkpt lon="8.26239446669058" lat="46.97929083417262">
                <ele>1790.0</ele>
                <time>2011-08-13T11:12:02.386Z</time>
                <name>NeuePosition 180</name>
            </trkpt>
            <trkpt lon="8.262298" lat="46.97925600000001">
                <ele>1907.873779</ele>
                <time>2011-08-13T11:13:27.000Z</time>
                <name>Position 181</name>
            </trkpt>
            <trkpt lon="8.262255" lat="46.978955">
                <ele>1919.890137</ele>
                <time>2011-08-13T11:17:00.000Z</time>
                <name>Position 182</name>
            </trkpt>
            <trkpt lon="8.261976" lat="46.97923400000001">
                <ele>1932.387451</ele>
                <time>2011-08-13T11:19:29.000Z</time>
                <name>Position 183</name>
            </trkpt>
            <trkpt lon="8.261863908073451" lat="46.97924138692903">
                <ele>1940.55835</ele>
                <time>2011-08-13T11:22:52.000Z</time>
                <name>Position 184</name>
            </trkpt>
            <trkpt lon="8.26174" lat="46.97936300000001">
                <ele>1935.751953</ele>
                <time>2011-08-13T11:23:11.000Z</time>
                <name>Position 185</name>
            </trkpt>
            <trkpt lon="8.261911373016346" lat="46.97944992771598">
                <ele>1940.077881</ele>
                <time>2011-08-13T11:24:08.000Z</time>
                <name>Position 186</name>
            </trkpt>
            <trkpt lon="8.262035008598332" lat="46.97973264392173">
                <ele>1790.0</ele>
                <time>2011-08-13T11:26:03.221Z</time>
                <name>Position 187</name>
            </trkpt>
            <trkpt lon="8.261975796295133" lat="46.97971519030584">
                <ele>1971.320557</ele>
                <time>2011-08-13T11:32:59.000Z</time>
                <name>Position 188</name>
            </trkpt>
            <trkpt lon="8.261590253967256" lat="46.97961268016034">
                <ele>1971.80127</ele>
                <time>2011-08-13T11:34:36.000Z</time>
                <name>Position 189</name>
            </trkpt>
            <trkpt lon="8.261179656414015" lat="46.97989812945675">
                <ele>1967.956055</ele>
                <time>2011-08-13T11:39:57.000Z</time>
                <name>Position 190</name>
            </trkpt>
            <trkpt lon="8.261045122684436" lat="46.980187190418945">
                <ele>1967.475342</ele>
                <time>2011-08-13T11:40:44.000Z</time>
                <name>Position 191</name>
            </trkpt>
            <trkpt lon="8.260667" lat="46.980243">
                <ele>1959.784668</ele>
                <time>2011-08-13T11:41:41.000Z</time>
                <name>Position 192</name>
            </trkpt>
            <trkpt lon="8.260125093254146" lat="46.98006454355692">
                <ele>1947.287598</ele>
                <time>2011-08-13T11:44:38.000Z</time>
                <name>Position 193</name>
            </trkpt>
            <trkpt lon="8.259616" lat="46.980007">
                <ele>1948.729736</ele>
                <time>2011-08-13T11:45:55.000Z</time>
                <name>Position 194</name>
            </trkpt>
            <trkpt lon="8.259315338623082" lat="46.97975266788225">
                <ele>1961.226807</ele>
                <time>2011-08-13T13:47:30.000Z</time>
                <name>Position 195</name>
            </trkpt>
            <trkpt lon="8.258894842922246" lat="46.97954136858427">
                <ele>1960.265381</ele>
                <time>2011-08-13T11:48:59.000Z</time>
                <name>Position 196</name>
            </trkpt>
            <trkpt lon="8.2585" lat="46.979384">
                <ele>1963.149414</ele>
                <time>2011-08-13T11:51:30.000Z</time>
                <name>Position 197</name>
            </trkpt>
            <trkpt lon="8.258100046627078" lat="46.97937118180298">
                <ele>1969.878662</ele>
                <time>2011-08-13T11:54:59.000Z</time>
                <name>Position 198</name>
            </trkpt>
            <trkpt lon="8.257955410770933" lat="46.979321943671636">
                <ele>1947.0</ele>
                <time>2011-08-13T11:55:35.422Z</time>
                <name>NeuePosition 199</name>
            </trkpt>
            <trkpt lon="8.257815766864724" lat="46.97936208077128">
                <ele>1991.508301</ele>
                <time>2011-08-13T12:05:43.000Z</time>
                <name>Position 200</name>
            </trkpt>
            <trkpt lon="8.258140618385369" lat="46.97932731987972">
                <ele>1991.027588</ele>
                <time>2011-08-13T12:19:32.000Z</time>
                <name>Position 201</name>
            </trkpt>
            <trkpt lon="8.258220949463407" lat="46.97936037302755">
                <ele>1947.0</ele>
                <time>2011-08-13T12:23:40.401Z</time>
                <name>NeuePosition 202</name>
            </trkpt>
            <trkpt lon="8.258715" lat="46.979449">
                <ele>1974.685303</ele>
                <time>2011-08-13T12:21:59.000Z</time>
                <name>Position 203</name>
            </trkpt>
            <trkpt lon="8.259187" lat="46.979277">
                <ele>1957.862305</ele>
                <time>2011-08-13T12:24:29.000Z</time>
                <name>Position 204</name>
            </trkpt>
            <trkpt lon="8.25928578644232" lat="46.9791407763359">
                <ele>1926.0</ele>
                <time>2011-08-13T12:25:11.337Z</time>
                <name>NeuePosition 205</name>
            </trkpt>
            <trkpt lon="8.258950457671972" lat="46.97892302938193">
                <ele>1933.829346</ele>
                <time>2011-08-13T12:26:52.000Z</time>
                <name>Position 206</name>
            </trkpt>
            <trkpt lon="8.258626029430388" lat="46.97872724945175">
                <ele>1932.86792</ele>
                <time>2011-08-13T12:28:07.000Z</time>
                <name>Position 207</name>
            </trkpt>
            <trkpt lon="8.258663513950864" lat="46.9786668104024">
                <ele>1906.0</ele>
                <time>2011-08-13T12:28:08.689Z</time>
                <name>NeuePosition 208</name>
            </trkpt>
            <trkpt lon="8.258306626983654" lat="46.97848768014854">
                <ele>1931.906494</ele>
                <time>2011-08-13T12:29:28.000Z</time>
                <name>Position 209</name>
            </trkpt>
            <trkpt lon="8.257971673610655" lat="46.97826083095624">
                <ele>1932.86792</ele>
                <time>2011-08-13T12:30:26.000Z</time>
                <name>Position 210</name>
            </trkpt>
            <trkpt lon="8.257652355819687" lat="46.977933291227714">
                <ele>1925.657959</ele>
                <time>2011-08-13T12:31:22.000Z</time>
                <name>Position 211</name>
            </trkpt>
            <trkpt lon="8.25752625732855" lat="46.97787075777828">
                <ele>1889.0</ele>
                <time>2011-08-13T12:31:47.978Z</time>
                <name>NeuePosition 212</name>
            </trkpt>
            <trkpt lon="8.257341" lat="46.977603">
                <ele>1920.37085</ele>
                <time>2011-08-13T12:32:52.000Z</time>
                <name>Position 213</name>
            </trkpt>
            <trkpt lon="8.257062" lat="46.977367">
                <ele>1914.12207</ele>
                <time>2011-08-13T12:33:35.000Z</time>
                <name>Position 214</name>
            </trkpt>
            <trkpt lon="8.256741" lat="46.977174">
                <ele>1910.757568</ele>
                <time>2011-08-13T12:34:31.000Z</time>
                <name>Position 215</name>
            </trkpt>
            <trkpt lon="8.256571390919248" lat="46.97714789512848">
                <ele>1898.0</ele>
                <time>2011-08-13T12:34:53.091Z</time>
                <name>NeuePosition 216</name>
            </trkpt>
            <trkpt lon="8.256372690807211" lat="46.97715111844636">
                <ele>1908.354248</ele>
                <time>2011-08-13T12:41:34.000Z</time>
                <name>Position 217</name>
            </trkpt>
            <trkpt lon="8.25613955526785" lat="46.97695757017275">
                <ele>1912.0</ele>
                <time>2011-08-13T12:52:48.064Z</time>
                <name>NeuePosition 218</name>
            </trkpt>
            <trkpt lon="8.255968" lat="46.976938">
                <ele>1919.409668</ele>
                <time>2011-08-13T12:43:50.000Z</time>
                <name>Position 219</name>
            </trkpt>
            <trkpt lon="8.255713084034483" lat="46.976849597060124">
                <ele>1917.0</ele>
                <time>2011-08-13T12:49:10.250Z</time>
                <name>NeuePosition 220</name>
            </trkpt>
            <trkpt lon="8.255584139881194" lat="46.97666905891607">
                <ele>1930.4646</ele>
                <time>2011-08-13T12:45:35.000Z</time>
                <name>Position 221</name>
            </trkpt>
            <trkpt lon="8.255501189522306" lat="46.976626329932365">
                <ele>1912.0</ele>
                <time>2011-08-13T12:46:46.731Z</time>
                <name>NeuePosition 222</name>
            </trkpt>
            <trkpt lon="8.255447545342008" lat="46.97665927104262">
                <ele>1913.0</ele>
                <time>2011-08-13T12:48:20.199Z</time>
                <name>NeuePosition 223</name>
            </trkpt>
            <trkpt lon="8.25551460056738" lat="46.97663182011881">
                <ele>1917.0</ele>
                <time>2011-08-13T12:51:16.841Z</time>
                <name>NeuePosition 224</name>
            </trkpt>
            <trkpt lon="8.255619206718961" lat="46.97672515320229">
                <ele>1912.0</ele>
                <time>2011-08-13T12:55:34.142Z</time>
                <name>NeuePosition 225</name>
            </trkpt>
            <trkpt lon="8.255520258930119" lat="46.97677146504705">
                <ele>1940.55835</ele>
                <time>2011-08-13T12:57:57.000Z</time>
                <name>Position 226</name>
            </trkpt>
            <trkpt lon="8.255477049641172" lat="46.9767471139041">
                <ele>1915.0</ele>
                <time>2011-08-13T12:58:50.934Z</time>
                <name>NeuePosition 227</name>
            </trkpt>
            <trkpt lon="8.255259790710966" lat="46.97686972765698">
                <ele>1928.0</ele>
                <time>2011-08-13T13:03:41.080Z</time>
                <name>NeuePosition 228</name>
            </trkpt>
            <trkpt lon="8.25492183237509" lat="46.976948419917385">
                <ele>1927.0</ele>
                <time>2011-08-13T12:58:33.742Z</time>
                <name>NeuePosition 229</name>
            </trkpt>
            <trkpt lon="8.254819898147616" lat="46.97710358878324">
                <ele>1944.884277</ele>
                <time>2011-08-13T12:59:38.000Z</time>
                <name>Position 230</name>
            </trkpt>
            <trkpt lon="8.25479040413336" lat="46.977195476261585">
                <ele>1940.0</ele>
                <time>2011-08-13T12:59:51.481Z</time>
                <name>NeuePosition 231</name>
            </trkpt>
            <trkpt lon="8.254766" lat="46.977453">
                <ele>1948.249023</ele>
                <time>2011-08-13T13:00:54.000Z</time>
                <name>Position 232</name>
            </trkpt>
            <trkpt lon="8.25475002579492" lat="46.97792958047986">
                <ele>1947.287598</ele>
                <time>2011-08-13T13:02:05.000Z</time>
                <name>Position 233</name>
            </trkpt>
            <trkpt lon="8.254710469905831" lat="46.97844744087009">
                <ele>1947.287598</ele>
                <time>2011-08-13T13:05:47.000Z</time>
                <name>Position 234</name>
            </trkpt>
            <trkpt lon="8.254500781406364" lat="46.97876042034349">
                <ele>1947.287598</ele>
                <time>2011-08-13T13:06:40.000Z</time>
                <name>Position 235</name>
            </trkpt>
            <trkpt lon="8.25413053603745" lat="46.97885177855214">
                <ele>1947.287598</ele>
                <time>2011-08-13T13:06:56.000Z</time>
                <name>Position 236</name>
            </trkpt>
            <trkpt lon="8.25468357902912" lat="46.97904747754563">
                <ele>1780.979736</ele>
                <time>2011-08-13T13:07:29.000Z</time>
                <name>Position 237</name>
            </trkpt>
            <trkpt lon="8.253854083328179" lat="46.97913073681493">
                <ele>2010.734619</ele>
                <time>2011-08-13T13:08:07.000Z</time>
                <name>Position 238</name>
            </trkpt>
            <trkpt lon="8.254189309192725" lat="46.979303596924844">
                <ele>2019.386719</ele>
                <time>2011-08-13T13:12:34.000Z</time>
                <name>Position 239</name>
            </trkpt>
            <trkpt lon="8.253840944774538" lat="46.97927791067219">
                <ele>2041.016113</ele>
                <time>2011-08-13T13:15:37.000Z</time>
                <name>Position 240</name>
            </trkpt>
            <trkpt lon="8.254251" lat="46.97949199999999">
                <ele>2052.552002</ele>
                <time>2011-08-13T13:16:33.000Z</time>
                <name>Position 241</name>
            </trkpt>
            <trkpt lon="8.254981" lat="46.97959899999999">
                <ele>2069.375244</ele>
                <time>2011-08-13T14:00:59.000Z</time>
                <name>Position 242</name>
            </trkpt>
            <trkpt lon="8.255496" lat="46.97959899999999">
                <ele>2076.585205</ele>
                <time>2011-08-13T14:09:05.000Z</time>
                <name>Position 243</name>
            </trkpt>
            <trkpt lon="8.255968" lat="46.979578">
                <ele>2083.314209</ele>
                <time>2011-08-13T14:09:46.000Z</time>
                <name>Position 244</name>
            </trkpt>
            <trkpt lon="8.256333" lat="46.979384">
                <ele>2077.546387</ele>
                <time>2011-08-13T14:11:29.000Z</time>
                <name>Position 245</name>
            </trkpt>
            <trkpt lon="8.256032880950897" lat="46.97907683626763">
                <ele>2057.839355</ele>
                <time>2011-08-13T14:12:55.000Z</time>
                <name>Position 246</name>
            </trkpt>
            <trkpt lon="8.25600831779093" lat="46.9789770587175">
                <ele>2060.723389</ele>
                <time>2011-08-13T14:13:24.000Z</time>
                <name>Position 247</name>
            </trkpt>
            <trkpt lon="8.256077851520558" lat="46.97893120111108">
                <ele>2085.717529</ele>
                <time>2011-08-13T14:15:04.000Z</time>
                <name>Position 248</name>
            </trkpt>
            <trkpt lon="8.256204" lat="46.97902">
                <ele>2106.385742</ele>
                <time>2011-08-13T14:17:08.000Z</time>
                <name>Position 249</name>
            </trkpt>
            <trkpt lon="8.256397" lat="46.97936300000001">
                <ele>2111.67334</ele>
                <time>2011-08-13T16:20:16.000Z</time>
                <name>Position 250</name>
            </trkpt>
            <trkpt lon="8.256332780425964" lat="46.97948382672862">
                <ele>2096.292236</ele>
                <time>2011-08-13T16:22:05.000Z</time>
                <name>Position 251</name>
            </trkpt>
            <trkpt lon="8.256177500663625" lat="46.979494692149444">
                <ele>2089.082031</ele>
                <time>2011-08-13T16:23:39.000Z</time>
                <name>Position 252</name>
            </trkpt>
            <trkpt lon="8.255858555889063" lat="46.97962368453403">
                <ele>2089.562744</ele>
                <time>2011-08-13T16:24:09.000Z</time>
                <name>Position 253</name>
            </trkpt>
            <trkpt lon="8.254988588954916" lat="46.979587085328276">
                <ele>2088.601563</ele>
                <time>2011-08-13T16:24:36.000Z</time>
                <name>Position 254</name>
            </trkpt>
            <trkpt lon="8.254581046626981" lat="46.97959162360643">
                <ele>2081.872314</ele>
                <time>2011-08-13T16:25:29.000Z</time>
                <name>Position 255</name>
            </trkpt>
            <trkpt lon="8.25496" lat="46.97959899999999">
                <ele>2077.546387</ele>
                <time>2011-08-13T16:28:19.000Z</time>
                <name>Position 256</name>
            </trkpt>
            <trkpt lon="8.25453" lat="46.97962">
                <ele>2078.507813</ele>
                <time>2011-08-13T16:30:49.000Z</time>
                <name>Position 257</name>
            </trkpt>
            <trkpt lon="8.254423" lat="46.97970599999999">
                <ele>2054.474609</ele>
                <time>2011-08-13T16:31:02.000Z</time>
                <name>Position 258</name>
            </trkpt>
            <trkpt lon="8.254616" lat="46.97959899999999">
                <ele>2063.126709</ele>
                <time>2011-08-13T16:33:52.000Z</time>
                <name>Position 259</name>
            </trkpt>
        </trkseg>
    </trk>
</gpx>
